KUVA/UVA METAR and TAF weather

Enter ICAO airport designator
Station Type Date Time Source
KUVA METAR 2020/01/19 00:35 UTC NOAA

KUVA 190035Z AUTO 02005KT 10SM CLR 16/07 A3026 RMK AO2 T01630071


Station Type Date Time Source
KUVA Decoded METAR 2020/01/19 00:35 UTC NOAA

Uvalde, Garner Field Airport, TX, United States (KUVA) 29-12-40N 099-44-36W
Jan 18, 2020 - 07:35 PM EST / 2020.01.19 0035 UTC
Wind: from the NNE (020 degrees) at 6 MPH (5 KT):0
Visibility: 10 mile(s):0
Sky conditions: clear
Temperature: 61.3 F (16.3 C)
Dew Point: 44.8 F (7.1 C)
Relative Humidity: 54%
Pressure (altimeter): 30.26 in. Hg (1024 hPa)
ob: KUVA 190035Z AUTO 02005KT 10SM CLR 16/07 A3026 RMK AO2 T01630071
cycle: 0

Station Type Date Time Source
KUVA TAF UTC NOAA

Error!

Example: see airport list